sensor_id;sensor_type;location;lat;lon;timestamp;P1;durP1;ratioP1;P2;durP2;ratioP2
57561;SDS011;43397;51.530;5.974;2023-05-15T00:01:29;35.90;;;22.45;;
57561;SDS011;43397;51.530;5.974;2023-05-15T00:03:54;30.38;;;21.85;;
57561;SDS011;43397;51.530;5.974;2023-05-15T00:06:21;34.90;;;22.08;;
57561;SDS011;43397;51.530;5.974;2023-05-15T00:08:47;35.83;;;22.00;;
57561;SDS011;43397;51.530;5.974;2023-05-15T00:11:13;32.97;;;22.33;;
57561;SDS011;43397;51.530;5.974;2023-05-15T00:13:38;37.97;;;23.48;;
57561;SDS011;43397;51.530;5.974;2023-05-15T00:16:04;38.10;;;22.85;;
57561;SDS011;43397;51.530;5.974;2023-05-15T00:18:30;33.83;;;22.40;;
57561;SDS011;43397;51.530;5.974;2023-05-15T00:20:56;37.42;;;23.02;;
57561;SDS011;43397;51.530;5.974;2023-05-15T00:23:23;36.42;;;23.35;;
57561;SDS011;43397;51.530;5.974;2023-05-15T00:25:49;38.97;;;23.45;;
57561;SDS011;43397;51.530;5.974;2023-05-15T00:28:14;40.78;;;23.58;;
57561;SDS011;43397;51.530;5.974;2023-05-15T00:30:40;42.60;;;25.13;;
57561;SDS011;43397;51.530;5.974;2023-05-15T00:33:06;39.25;;;24.70;;
57561;SDS011;43397;51.530;5.974;2023-05-15T00:35:31;38.40;;;24.10;;
57561;SDS011;43397;51.530;5.974;2023-05-15T00:37:57;38.80;;;24.33;;
57561;SDS011;43397;51.530;5.974;2023-05-15T00:40:24;42.30;;;25.17;;
57561;SDS011;43397;51.530;5.974;2023-05-15T00:42:52;42.58;;;25.05;;
57561;SDS011;43397;51.530;5.974;2023-05-15T00:45:18;42.33;;;24.50;;
57561;SDS011;43397;51.530;5.974;2023-05-15T00:47:46;44.28;;;26.02;;
57561;SDS011;43397;51.530;5.974;2023-05-15T00:50:12;38.22;;;24.90;;
57561;SDS011;43397;51.530;5.974;2023-05-15T00:52:39;41.10;;;25.40;;
57561;SDS011;43397;51.530;5.974;2023-05-15T00:55:05;39.80;;;24.73;;
57561;SDS011;43397;51.530;5.974;2023-05-15T00:57:32;46.42;;;25.30;;
57561;SDS011;43397;51.530;5.974;2023-05-15T00:59:59;43.50;;;25.92;;
57561;SDS011;43397;51.530;5.974;2023-05-15T01:02:28;44.97;;;25.40;;
57561;SDS011;43397;51.530;5.974;2023-05-15T01:04:54;44.13;;;25.95;;
57561;SDS011;43397;51.530;5.974;2023-05-15T01:07:19;48.92;;;26.13;;
57561;SDS011;43397;51.530;5.974;2023-05-15T01:09:45;48.20;;;26.10;;
57561;SDS011;43397;51.530;5.974;2023-05-15T01:12:13;40.05;;;24.20;;
57561;SDS011;43397;51.530;5.974;2023-05-15T01:14:41;43.38;;;25.02;;
57561;SDS011;43397;51.530;5.974;2023-05-15T01:17:07;42.58;;;25.65;;
57561;SDS011;43397;51.530;5.974;2023-05-15T01:19:33;42.38;;;24.73;;
57561;SDS011;43397;51.530;5.974;2023-05-15T01:22:18;42.35;;;25.40;;
57561;SDS011;43397;51.530;5.974;2023-05-15T01:27:42;41.58;;;23.58;;
57561;SDS011;43397;51.530;5.974;2023-05-15T01:30:13;41.90;;;24.80;;
57561;SDS011;43397;51.530;5.974;2023-05-15T01:32:58;43.58;;;24.05;;
57561;SDS011;43397;51.530;5.974;2023-05-15T01:35:30;40.47;;;24.33;;
57561;SDS011;43397;51.530;5.974;2023-05-15T01:38:02;38.63;;;23.77;;
57561;SDS011;43397;51.530;5.974;2023-05-15T01:40:36;39.97;;;22.77;;
57561;SDS011;43397;51.530;5.974;2023-05-15T01:43:07;38.50;;;22.60;;
57561;SDS011;43397;51.530;5.974;2023-05-15T01:45:36;42.42;;;23.80;;
57561;SDS011;43397;51.530;5.974;2023-05-15T01:48:04;45.90;;;24.50;;
57561;SDS011;43397;51.530;5.974;2023-05-15T01:50:32;37.97;;;23.45;;
57561;SDS011;43397;51.530;5.974;2023-05-15T01:52:59;40.83;;;24.20;;
57561;SDS011;43397;51.530;5.974;2023-05-15T01:55:26;44.05;;;24.42;;
57561;SDS011;43397;51.530;5.974;2023-05-15T01:57:53;41.83;;;25.25;;
57561;SDS011;43397;51.530;5.974;2023-05-15T02:00:22;41.40;;;22.38;;
57561;SDS011;43397;51.530;5.974;2023-05-15T02:02:49;38.23;;;23.80;;
57561;SDS011;43397;51.530;5.974;2023-05-15T02:05:15;43.50;;;24.98;;
57561;SDS011;43397;51.530;5.974;2023-05-15T02:07:42;44.90;;;24.33;;
57561;SDS011;43397;51.530;5.974;2023-05-15T02:10:09;42.00;;;23.83;;
57561;SDS011;43397;51.530;5.974;2023-05-15T02:12:37;39.80;;;25.00;;
57561;SDS011;43397;51.530;5.974;2023-05-15T02:15:04;46.88;;;24.67;;
57561;SDS011;43397;51.530;5.974;2023-05-15T02:17:33;42.15;;;25.70;;
57561;SDS011;43397;51.530;5.974;2023-05-15T02:19:58;43.03;;;25.05;;
57561;SDS011;43397;51.530;5.974;2023-05-15T02:22:24;43.92;;;26.30;;
57561;SDS011;43397;51.530;5.974;2023-05-15T02:24:50;44.35;;;24.27;;
57561;SDS011;43397;51.530;5.974;2023-05-15T02:27:16;44.95;;;25.85;;
57561;SDS011;43397;51.530;5.974;2023-05-15T02:29:49;41.35;;;26.83;;
57561;SDS011;43397;51.530;5.974;2023-05-15T02:32:27;47.55;;;27.45;;
57561;SDS011;43397;51.530;5.974;2023-05-15T02:35:01;41.60;;;24.80;;
57561;SDS011;43397;51.530;5.974;2023-05-15T02:37:36;48.38;;;25.90;;
57561;SDS011;43397;51.530;5.974;2023-05-15T02:40:03;45.03;;;25.25;;
57561;SDS011;43397;51.530;5.974;2023-05-15T02:42:34;48.22;;;26.50;;
57561;SDS011;43397;51.530;5.974;2023-05-15T02:45:01;41.65;;;25.63;;
57561;SDS011;43397;51.530;5.974;2023-05-15T02:47:27;46.17;;;26.13;;
57561;SDS011;43397;51.530;5.974;2023-05-15T02:49:53;49.38;;;26.85;;
57561;SDS011;43397;51.530;5.974;2023-05-15T02:52:22;49.72;;;27.20;;
57561;SDS011;43397;51.530;5.974;2023-05-15T02:54:48;50.70;;;27.15;;
57561;SDS011;43397;51.530;5.974;2023-05-15T02:57:14;46.17;;;26.45;;
57561;SDS011;43397;51.530;5.974;2023-05-15T02:59:40;46.67;;;26.52;;
57561;SDS011;43397;51.530;5.974;2023-05-15T03:02:06;43.50;;;26.92;;
57561;SDS011;43397;51.530;5.974;2023-05-15T03:04:31;50.60;;;26.83;;
57561;SDS011;43397;51.530;5.974;2023-05-15T03:06:57;44.45;;;27.23;;
57561;SDS011;43397;51.530;5.974;2023-05-15T03:09:24;48.75;;;27.70;;
57561;SDS011;43397;51.530;5.974;2023-05-15T03:11:50;49.33;;;27.65;;
57561;SDS011;43397;51.530;5.974;2023-05-15T03:14:15;48.13;;;27.05;;
57561;SDS011;43397;51.530;5.974;2023-05-15T03:16:41;47.20;;;28.67;;
57561;SDS011;43397;51.530;5.974;2023-05-15T03:19:06;49.80;;;28.00;;
57561;SDS011;43397;51.530;5.974;2023-05-15T03:21:32;51.92;;;29.55;;
57561;SDS011;43397;51.530;5.974;2023-05-15T03:23:58;47.58;;;27.80;;
57561;SDS011;43397;51.530;5.974;2023-05-15T03:26:25;59.00;;;30.80;;
57561;SDS011;43397;51.530;5.974;2023-05-15T03:28:51;62.17;;;31.45;;
57561;SDS011;43397;51.530;5.974;2023-05-15T03:31:16;63.42;;;31.15;;
57561;SDS011;43397;51.530;5.974;2023-05-15T03:33:42;59.15;;;31.73;;
57561;SDS011;43397;51.530;5.974;2023-05-15T03:36:08;71.97;;;34.80;;
57561;SDS011;43397;51.530;5.974;2023-05-15T03:38:33;76.68;;;36.47;;
57561;SDS011;43397;51.530;5.974;2023-05-15T03:40:59;82.75;;;39.85;;
57561;SDS011;43397;51.530;5.974;2023-05-15T03:43:26;84.72;;;38.72;;
57561;SDS011;43397;51.530;5.974;2023-05-15T03:45:52;90.15;;;43.88;;
57561;SDS011;43397;51.530;5.974;2023-05-15T03:48:17;90.68;;;42.40;;
57561;SDS011;43397;51.530;5.974;2023-05-15T03:50:43;93.40;;;43.47;;
57561;SDS011;43397;51.530;5.974;2023-05-15T03:53:09;99.13;;;43.28;;
57561;SDS011;43397;51.530;5.974;2023-05-15T03:55:35;97.10;;;44.65;;
57561;SDS011;43397;51.530;5.974;2023-05-15T03:58:01;100.20;;;45.60;;
57561;SDS011;43397;51.530;5.974;2023-05-15T04:00:28;98.75;;;45.88;;
57561;SDS011;43397;51.530;5.974;2023-05-15T04:02:54;105.68;;;45.20;;
57561;SDS011;43397;51.530;5.974;2023-05-15T04:05:20;96.97;;;45.05;;
57561;SDS011;43397;51.530;5.974;2023-05-15T04:07:46;100.72;;;46.28;;
57561;SDS011;43397;51.530;5.974;2023-05-15T04:10:11;102.15;;;45.05;;
57561;SDS011;43397;51.530;5.974;2023-05-15T04:12:37;106.68;;;49.63;;
57561;SDS011;43397;51.530;5.974;2023-05-15T04:15:13;99.88;;;45.17;;
57561;SDS011;43397;51.530;5.974;2023-05-15T04:17:41;102.00;;;45.25;;
57561;SDS011;43397;51.530;5.974;2023-05-15T04:20:07;114.90;;;49.33;;
57561;SDS011;43397;51.530;5.974;2023-05-15T04:22:33;111.47;;;50.97;;
57561;SDS011;43397;51.530;5.974;2023-05-15T04:24:59;104.45;;;47.67;;
57561;SDS011;43397;51.530;5.974;2023-05-15T04:27:24;105.85;;;50.90;;
57561;SDS011;43397;51.530;5.974;2023-05-15T04:29:50;108.97;;;49.53;;
57561;SDS011;43397;51.530;5.974;2023-05-15T04:32:16;110.00;;;49.20;;
57561;SDS011;43397;51.530;5.974;2023-05-15T04:34:43;99.93;;;48.40;;
57561;SDS011;43397;51.530;5.974;2023-05-15T04:37:09;105.57;;;49.67;;
57561;SDS011;43397;51.530;5.974;2023-05-15T04:39:35;96.32;;;48.95;;
57561;SDS011;43397;51.530;5.974;2023-05-15T04:42:00;91.90;;;46.83;;
57561;SDS011;43397;51.530;5.974;2023-05-15T04:44:26;89.32;;;44.55;;
57561;SDS011;43397;51.530;5.974;2023-05-15T04:46:52;86.30;;;43.42;;
57561;SDS011;43397;51.530;5.974;2023-05-15T04:49:17;80.40;;;40.15;;
57561;SDS011;43397;51.530;5.974;2023-05-15T04:51:44;76.65;;;41.30;;
57561;SDS011;43397;51.530;5.974;2023-05-15T04:54:10;83.40;;;44.08;;
57561;SDS011;43397;51.530;5.974;2023-05-15T04:56:36;83.70;;;43.53;;
57561;SDS011;43397;51.530;5.974;2023-05-15T04:59:01;75.68;;;41.10;;
57561;SDS011;43397;51.530;5.974;2023-05-15T05:01:27;68.07;;;38.05;;
57561;SDS011;43397;51.530;5.974;2023-05-15T05:03:53;66.43;;;38.28;;
57561;SDS011;43397;51.530;5.974;2023-05-15T05:06:18;73.15;;;38.88;;
57561;SDS011;43397;51.530;5.974;2023-05-15T05:08:45;70.97;;;38.47;;
57561;SDS011;43397;51.530;5.974;2023-05-15T05:11:11;66.80;;;38.10;;
57561;SDS011;43397;51.530;5.974;2023-05-15T05:13:37;71.80;;;40.20;;
57561;SDS011;43397;51.530;5.974;2023-05-15T05:16:02;64.70;;;37.88;;
57561;SDS011;43397;51.530;5.974;2023-05-15T05:18:28;70.55;;;39.00;;
57561;SDS011;43397;51.530;5.974;2023-05-15T05:20:57;75.95;;;38.95;;
57561;SDS011;43397;51.530;5.974;2023-05-15T05:23:23;75.05;;;40.15;;
57561;SDS011;43397;51.530;5.974;2023-05-15T05:25:50;73.22;;;39.95;;
57561;SDS011;43397;51.530;5.974;2023-05-15T05:28:16;71.38;;;39.25;;
57561;SDS011;43397;51.530;5.974;2023-05-15T05:30:43;64.50;;;37.42;;
57561;SDS011;43397;51.530;5.974;2023-05-15T05:33:09;63.60;;;37.78;;
57561;SDS011;43397;51.530;5.974;2023-05-15T05:35:34;67.60;;;38.45;;
57561;SDS011;43397;51.530;5.974;2023-05-15T05:38:00;64.20;;;37.17;;
57561;SDS011;43397;51.530;5.974;2023-05-15T05:40:26;62.20;;;34.30;;
57561;SDS011;43397;51.530;5.974;2023-05-15T05:42:53;65.25;;;37.67;;
57561;SDS011;43397;51.530;5.974;2023-05-15T05:45:18;61.63;;;36.75;;
57561;SDS011;43397;51.530;5.974;2023-05-15T05:47:44;65.78;;;36.00;;
57561;SDS011;43397;51.530;5.974;2023-05-15T05:50:10;63.95;;;36.92;;
57561;SDS011;43397;51.530;5.974;2023-05-15T05:52:36;64.88;;;38.00;;
57561;SDS011;43397;51.530;5.974;2023-05-15T05:55:01;65.25;;;37.97;;
57561;SDS011;43397;51.530;5.974;2023-05-15T05:57:27;67.22;;;39.00;;
57561;SDS011;43397;51.530;5.974;2023-05-15T05:59:54;66.70;;;35.72;;
57561;SDS011;43397;51.530;5.974;2023-05-15T06:02:20;69.22;;;39.42;;
57561;SDS011;43397;51.530;5.974;2023-05-15T06:04:46;66.40;;;39.40;;
57561;SDS011;43397;51.530;5.974;2023-05-15T06:07:11;66.88;;;40.05;;
57561;SDS011;43397;51.530;5.974;2023-05-15T06:09:37;64.20;;;36.40;;
57561;SDS011;43397;51.530;5.974;2023-05-15T06:12:03;64.40;;;38.47;;
57561;SDS011;43397;51.530;5.974;2023-05-15T06:14:29;60.65;;;37.13;;
57561;SDS011;43397;51.530;5.974;2023-05-15T06:16:56;55.72;;;35.00;;
57561;SDS011;43397;51.530;5.974;2023-05-15T06:19:22;58.70;;;36.17;;
57561;SDS011;43397;51.530;5.974;2023-05-15T06:21:48;53.08;;;34.22;;
57561;SDS011;43397;51.530;5.974;2023-05-15T06:24:13;52.97;;;33.67;;
57561;SDS011;43397;51.530;5.974;2023-05-15T06:26:39;53.35;;;34.15;;
57561;SDS011;43397;51.530;5.974;2023-05-15T06:29:05;52.40;;;32.90;;
57561;SDS011;43397;51.530;5.974;2023-05-15T06:31:30;56.05;;;33.95;;
57561;SDS011;43397;51.530;5.974;2023-05-15T06:33:57;52.75;;;32.40;;
57561;SDS011;43397;51.530;5.974;2023-05-15T06:36:23;51.47;;;33.40;;
57561;SDS011;43397;51.530;5.974;2023-05-15T06:38:49;49.97;;;32.38;;
57561;SDS011;43397;51.530;5.974;2023-05-15T06:41:14;50.17;;;31.33;;
57561;SDS011;43397;51.530;5.974;2023-05-15T06:43:40;49.83;;;29.58;;
57561;SDS011;43397;51.530;5.974;2023-05-15T06:46:06;44.72;;;29.33;;
57561;SDS011;43397;51.530;5.974;2023-05-15T06:48:31;40.95;;;28.00;;
57561;SDS011;43397;51.530;5.974;2023-05-15T06:50:58;38.08;;;26.15;;
57561;SDS011;43397;51.530;5.974;2023-05-15T06:53:24;40.53;;;26.23;;
57561;SDS011;43397;51.530;5.974;2023-05-15T06:55:49;38.45;;;24.98;;
57561;SDS011;43397;51.530;5.974;2023-05-15T06:58:15;36.45;;;26.35;;
57561;SDS011;43397;51.530;5.974;2023-05-15T07:00:41;34.80;;;24.60;;
57561;SDS011;43397;51.530;5.974;2023-05-15T07:03:06;38.78;;;26.45;;
57561;SDS011;43397;51.530;5.974;2023-05-15T07:05:32;36.60;;;25.75;;
57561;SDS011;43397;51.530;5.974;2023-05-15T07:07:59;37.30;;;26.92;;
57561;SDS011;43397;51.530;5.974;2023-05-15T07:10:25;35.67;;;24.85;;
57561;SDS011;43397;51.530;5.974;2023-05-15T07:12:50;37.28;;;26.38;;
57561;SDS011;43397;51.530;5.974;2023-05-15T07:15:16;36.47;;;27.17;;
57561;SDS011;43397;51.530;5.974;2023-05-15T07:17:42;38.17;;;26.30;;
57561;SDS011;43397;51.530;5.974;2023-05-15T07:20:08;31.52;;;23.60;;
57561;SDS011;43397;51.530;5.974;2023-05-15T07:22:34;33.10;;;24.58;;
57561;SDS011;43397;51.530;5.974;2023-05-15T07:25:01;32.72;;;24.67;;
57561;SDS011;43397;51.530;5.974;2023-05-15T07:27:26;33.17;;;24.60;;
57561;SDS011;43397;51.530;5.974;2023-05-15T07:29:52;29.98;;;24.58;;
57561;SDS011;43397;51.530;5.974;2023-05-15T07:32:18;32.08;;;24.10;;
57561;SDS011;43397;51.530;5.974;2023-05-15T07:34:43;30.17;;;23.55;;
57561;SDS011;43397;51.530;5.974;2023-05-15T07:37:09;29.75;;;23.95;;
57561;SDS011;43397;51.530;5.974;2023-05-15T07:39:35;29.73;;;24.63;;
57561;SDS011;43397;51.530;5.974;2023-05-15T07:42:02;31.88;;;24.50;;
57561;SDS011;43397;51.530;5.974;2023-05-15T07:44:28;33.97;;;25.90;;
57561;SDS011;43397;51.530;5.974;2023-05-15T07:46:53;32.75;;;24.42;;
57561;SDS011;43397;51.530;5.974;2023-05-15T07:49:19;34.88;;;27.70;;
57561;SDS011;43397;51.530;5.974;2023-05-15T07:51:45;34.88;;;27.05;;
57561;SDS011;43397;51.530;5.974;2023-05-15T07:54:10;30.60;;;26.65;;
57561;SDS011;43397;51.530;5.974;2023-05-15T07:56:36;34.95;;;28.50;;
57561;SDS011;43397;51.530;5.974;2023-05-15T07:59:03;35.22;;;28.35;;
57561;SDS011;43397;51.530;5.974;2023-05-15T08:01:29;32.63;;;27.13;;
57561;SDS011;43397;51.530;5.974;2023-05-15T08:03:54;32.90;;;26.25;;
57561;SDS011;43397;51.530;5.974;2023-05-15T08:06:20;34.58;;;26.95;;
57561;SDS011;43397;51.530;5.974;2023-05-15T08:08:46;33.05;;;26.85;;
57561;SDS011;43397;51.530;5.974;2023-05-15T08:11:12;30.42;;;24.48;;
57561;SDS011;43397;51.530;5.974;2023-05-15T08:13:37;27.75;;;22.52;;
57561;SDS011;43397;51.530;5.974;2023-05-15T08:16:05;30.73;;;25.25;;
57561;SDS011;43397;51.530;5.974;2023-05-15T08:18:30;30.33;;;25.58;;
57561;SDS011;43397;51.530;5.974;2023-05-15T08:20:56;30.15;;;24.92;;
57561;SDS011;43397;51.530;5.974;2023-05-15T08:23:22;28.95;;;24.15;;
57561;SDS011;43397;51.530;5.974;2023-05-15T08:25:47;29.50;;;25.02;;
57561;SDS011;43397;51.530;5.974;2023-05-15T08:28:13;26.88;;;22.70;;
57561;SDS011;43397;51.530;5.974;2023-05-15T08:30:39;24.40;;;21.48;;
57561;SDS011;43397;51.530;5.974;2023-05-15T08:33:06;24.23;;;21.48;;
57561;SDS011;43397;51.530;5.974;2023-05-15T08:35:32;25.58;;;22.90;;
57561;SDS011;43397;51.530;5.974;2023-05-15T08:37:57;25.63;;;22.83;;
57561;SDS011;43397;51.530;5.974;2023-05-15T08:40:24;26.80;;;23.92;;
57561;SDS011;43397;51.530;5.974;2023-05-15T08:42:51;26.83;;;23.38;;
57561;SDS011;43397;51.530;5.974;2023-05-15T08:45:19;28.13;;;23.77;;
57561;SDS011;43397;51.530;5.974;2023-05-15T08:47:45;28.35;;;23.95;;
57561;SDS011;43397;51.530;5.974;2023-05-15T08:50:13;27.52;;;24.63;;
57561;SDS011;43397;51.530;5.974;2023-05-15T08:52:40;26.92;;;24.02;;
57561;SDS011;43397;51.530;5.974;2023-05-15T08:55:07;29.70;;;23.95;;
57561;SDS011;43397;51.530;5.974;2023-05-15T08:57:34;28.17;;;25.25;;
57561;SDS011;43397;51.530;5.974;2023-05-15T09:00:01;25.75;;;23.05;;
57561;SDS011;43397;51.530;5.974;2023-05-15T09:02:27;24.38;;;21.40;;
57561;SDS011;43397;51.530;5.974;2023-05-15T09:04:53;24.20;;;21.40;;
57561;SDS011;43397;51.530;5.974;2023-05-15T09:07:20;27.38;;;21.75;;
57561;SDS011;43397;51.530;5.974;2023-05-15T09:09:46;26.02;;;22.88;;
57561;SDS011;43397;51.530;5.974;2023-05-15T09:12:13;26.48;;;23.60;;
57561;SDS011;43397;51.530;5.974;2023-05-15T09:14:39;27.85;;;24.13;;
57561;SDS011;43397;51.530;5.974;2023-05-15T09:17:05;26.77;;;23.88;;
57561;SDS011;43397;51.530;5.974;2023-05-15T09:19:32;23.80;;;21.25;;
57561;SDS011;43397;51.530;5.974;2023-05-15T09:22:02;28.35;;;23.48;;
57561;SDS011;43397;51.530;5.974;2023-05-15T09:24:41;21.50;;;17.17;;
57561;SDS011;43397;51.530;5.974;2023-05-15T09:27:07;25.63;;;22.77;;
57561;SDS011;43397;51.530;5.974;2023-05-15T09:29:34;22.05;;;19.58;;
57561;SDS011;43397;51.530;5.974;2023-05-15T09:32:01;24.13;;;19.83;;
57561;SDS011;43397;51.530;5.974;2023-05-15T09:34:27;22.13;;;19.85;;
57561;SDS011;43397;51.530;5.974;2023-05-15T09:36:54;22.55;;;20.05;;
57561;SDS011;43397;51.530;5.974;2023-05-15T09:39:21;27.02;;;21.13;;
57561;SDS011;43397;51.530;5.974;2023-05-15T09:41:48;19.48;;;16.90;;
57561;SDS011;43397;51.530;5.974;2023-05-15T09:44:17;23.30;;;19.83;;
57561;SDS011;43397;51.530;5.974;2023-05-15T09:46:43;16.17;;;12.85;;
57561;SDS011;43397;51.530;5.974;2023-05-15T09:49:09;15.10;;;12.63;;
57561;SDS011;43397;51.530;5.974;2023-05-15T09:51:34;16.85;;;13.43;;
57561;SDS011;43397;51.530;5.974;2023-05-15T09:54:00;16.10;;;14.40;;
57561;SDS011;43397;51.530;5.974;2023-05-15T09:56:26;19.67;;;14.23;;
57561;SDS011;43397;51.530;5.974;2023-05-15T09:58:53;17.88;;;15.07;;
57561;SDS011;43397;51.530;5.974;2023-05-15T10:01:20;20.00;;;17.47;;
57561;SDS011;43397;51.530;5.974;2023-05-15T10:03:55;17.23;;;15.20;;
57561;SDS011;43397;51.530;5.974;2023-05-15T10:06:21;19.63;;;16.55;;
57561;SDS011;43397;51.530;5.974;2023-05-15T10:08:49;18.45;;;16.50;;
57561;SDS011;43397;51.530;5.974;2023-05-15T10:11:15;18.33;;;15.30;;
57561;SDS011;43397;51.530;5.974;2023-05-15T10:13:41;19.75;;;17.75;;
57561;SDS011;43397;51.530;5.974;2023-05-15T10:16:08;21.15;;;17.38;;
57561;SDS011;43397;51.530;5.974;2023-05-15T10:18:34;19.98;;;17.52;;
57561;SDS011;43397;51.530;5.974;2023-05-15T10:21:02;18.73;;;16.73;;
57561;SDS011;43397;51.530;5.974;2023-05-15T10:23:28;18.25;;;16.20;;
57561;SDS011;43397;51.530;5.974;2023-05-15T10:25:57;18.38;;;16.42;;
57561;SDS011;43397;51.530;5.974;2023-05-15T10:28:26;17.50;;;15.75;;
57561;SDS011;43397;51.530;5.974;2023-05-15T10:30:53;18.52;;;16.42;;
57561;SDS011;43397;51.530;5.974;2023-05-15T10:33:23;17.38;;;15.60;;
57561;SDS011;43397;51.530;5.974;2023-05-15T10:35:49;20.20;;;17.80;;
57561;SDS011;43397;51.530;5.974;2023-05-15T10:38:16;20.02;;;17.92;;
57561;SDS011;43397;51.530;5.974;2023-05-15T10:40:43;21.25;;;18.33;;
57561;SDS011;43397;51.530;5.974;2023-05-15T10:43:10;20.23;;;18.17;;
57561;SDS011;43397;51.530;5.974;2023-05-15T10:45:37;21.23;;;18.88;;
57561;SDS011;43397;51.530;5.974;2023-05-15T10:48:03;20.27;;;18.27;;
57561;SDS011;43397;51.530;5.974;2023-05-15T10:50:33;20.98;;;16.63;;
57561;SDS011;43397;51.530;5.974;2023-05-15T10:53:00;19.65;;;17.55;;
57561;SDS011;43397;51.530;5.974;2023-05-15T10:55:26;21.42;;;17.25;;
57561;SDS011;43397;51.530;5.974;2023-05-15T10:57:52;19.88;;;17.73;;
57561;SDS011;43397;51.530;5.974;2023-05-15T11:00:23;21.38;;;19.17;;
57561;SDS011;43397;51.530;5.974;2023-05-15T11:02:49;21.08;;;18.88;;
57561;SDS011;43397;51.530;5.974;2023-05-15T11:05:15;21.35;;;19.15;;
57561;SDS011;43397;51.530;5.974;2023-05-15T11:07:42;22.50;;;18.92;;
57561;SDS011;43397;51.530;5.974;2023-05-15T11:13:01;20.50;;;17.33;;
57561;SDS011;43397;51.530;5.974;2023-05-15T11:15:27;20.42;;;17.10;;
57561;SDS011;43397;51.530;5.974;2023-05-15T11:18:06;18.20;;;16.30;;
57561;SDS011;43397;51.530;5.974;2023-05-15T11:20:32;18.52;;;16.63;;
57561;SDS011;43397;51.530;5.974;2023-05-15T11:23:03;20.02;;;16.50;;
57561;SDS011;43397;51.530;5.974;2023-05-15T11:25:29;20.13;;;16.70;;
57561;SDS011;43397;51.530;5.974;2023-05-15T11:27:55;19.63;;;17.38;;
57561;SDS011;43397;51.530;5.974;2023-05-15T11:30:21;22.27;;;18.52;;
57561;SDS011;43397;51.530;5.974;2023-05-15T11:32:54;21.60;;;19.30;;
57561;SDS011;43397;51.530;5.974;2023-05-15T11:35:21;21.38;;;19.02;;
57561;SDS011;43397;51.530;5.974;2023-05-15T11:37:49;23.48;;;20.70;;
57561;SDS011;43397;51.530;5.974;2023-05-15T11:40:19;28.38;;;22.35;;
57561;SDS011;43397;51.530;5.974;2023-05-15T11:43:02;27.02;;;21.90;;
57561;SDS011;43397;51.530;5.974;2023-05-15T11:45:30;27.52;;;21.63;;
57561;SDS011;43397;51.530;5.974;2023-05-15T11:47:58;27.50;;;23.05;;
57561;SDS011;43397;51.530;5.974;2023-05-15T11:50:25;28.48;;;22.75;;
57561;SDS011;43397;51.530;5.974;2023-05-15T11:52:51;25.13;;;21.33;;
57561;SDS011;43397;51.530;5.974;2023-05-15T11:55:19;24.70;;;20.40;;
57561;SDS011;43397;51.530;5.974;2023-05-15T11:57:45;25.33;;;22.07;;
57561;SDS011;43397;51.530;5.974;2023-05-15T12:00:11;23.85;;;21.20;;
57561;SDS011;43397;51.530;5.974;2023-05-15T12:02:37;23.33;;;20.63;;
57561;SDS011;43397;51.530;5.974;2023-05-15T12:05:05;25.48;;;19.98;;
57561;SDS011;43397;51.530;5.974;2023-05-15T12:07:31;23.65;;;21.10;;
57561;SDS011;43397;51.530;5.974;2023-05-15T12:10:01;24.30;;;20.25;;
57561;SDS011;43397;51.530;5.974;2023-05-15T12:12:28;25.10;;;19.30;;
57561;SDS011;43397;51.530;5.974;2023-05-15T12:14:56;25.23;;;20.73;;
57561;SDS011;43397;51.530;5.974;2023-05-15T12:17:22;23.70;;;20.95;;
57561;SDS011;43397;51.530;5.974;2023-05-15T12:19:48;23.30;;;20.38;;
57561;SDS011;43397;51.530;5.974;2023-05-15T12:22:15;23.88;;;21.00;;
57561;SDS011;43397;51.530;5.974;2023-05-15T12:24:41;22.20;;;19.23;;
57561;SDS011;43397;51.530;5.974;2023-05-15T12:27:07;22.40;;;18.88;;
57561;SDS011;43397;51.530;5.974;2023-05-15T12:29:34;23.13;;;19.52;;
57561;SDS011;43397;51.530;5.974;2023-05-15T12:32:00;22.20;;;18.98;;
57561;SDS011;43397;51.530;5.974;2023-05-15T12:34:26;22.55;;;18.40;;
57561;SDS011;43397;51.530;5.974;2023-05-15T12:36:52;23.35;;;18.65;;
57561;SDS011;43397;51.530;5.974;2023-05-15T12:39:18;24.23;;;19.40;;
57561;SDS011;43397;51.530;5.974;2023-05-15T12:41:43;22.05;;;19.48;;
57561;SDS011;43397;51.530;5.974;2023-05-15T12:44:14;25.52;;;20.77;;
57561;SDS011;43397;51.530;5.974;2023-05-15T12:46:42;22.92;;;19.70;;
57561;SDS011;43397;51.530;5.974;2023-05-15T12:49:07;25.42;;;21.38;;
57561;SDS011;43397;51.530;5.974;2023-05-15T12:51:34;26.08;;;23.15;;
57561;SDS011;43397;51.530;5.974;2023-05-15T12:54:15;28.25;;;21.85;;
57561;SDS011;43397;51.530;5.974;2023-05-15T12:56:41;26.98;;;22.40;;
57561;SDS011;43397;51.530;5.974;2023-05-15T12:59:07;28.35;;;22.90;;
57561;SDS011;43397;51.530;5.974;2023-05-15T13:01:32;27.75;;;21.80;;
57561;SDS011;43397;51.530;5.974;2023-05-15T13:03:59;27.20;;;21.83;;
57561;SDS011;43397;51.530;5.974;2023-05-15T13:06:25;27.85;;;23.38;;
57561;SDS011;43397;51.530;5.974;2023-05-15T13:08:51;30.25;;;23.40;;
57561;SDS011;43397;51.530;5.974;2023-05-15T13:11:18;27.10;;;23.70;;
57561;SDS011;43397;51.530;5.974;2023-05-15T13:13:44;28.95;;;23.85;;
57561;SDS011;43397;51.530;5.974;2023-05-15T13:16:17;33.60;;;24.08;;
57561;SDS011;43397;51.530;5.974;2023-05-15T13:18:44;27.98;;;22.42;;
57561;SDS011;43397;51.530;5.974;2023-05-15T13:21:11;29.40;;;23.33;;
57561;SDS011;43397;51.530;5.974;2023-05-15T13:23:37;28.63;;;24.15;;
57561;SDS011;43397;51.530;5.974;2023-05-15T13:26:02;31.38;;;23.08;;
57561;SDS011;43397;51.530;5.974;2023-05-15T13:28:28;29.77;;;22.75;;
57561;SDS011;43397;51.530;5.974;2023-05-15T13:30:54;33.70;;;23.92;;
57561;SDS011;43397;51.530;5.974;2023-05-15T13:33:19;29.27;;;22.58;;
57561;SDS011;43397;51.530;5.974;2023-05-15T13:35:45;31.48;;;24.63;;
57561;SDS011;43397;51.530;5.974;2023-05-15T13:38:12;32.10;;;24.83;;
57561;SDS011;43397;51.530;5.974;2023-05-15T13:40:38;33.08;;;25.55;;
57561;SDS011;43397;51.530;5.974;2023-05-15T13:43:03;33.70;;;25.60;;
57561;SDS011;43397;51.530;5.974;2023-05-15T13:45:29;33.78;;;25.92;;
57561;SDS011;43397;51.530;5.974;2023-05-15T13:47:55;38.00;;;27.17;;
57561;SDS011;43397;51.530;5.974;2023-05-15T13:50:21;37.75;;;27.05;;
57561;SDS011;43397;51.530;5.974;2023-05-15T13:52:46;33.80;;;26.65;;
57561;SDS011;43397;51.530;5.974;2023-05-15T13:55:14;32.08;;;25.58;;
57561;SDS011;43397;51.530;5.974;2023-05-15T13:57:40;31.90;;;24.38;;
57561;SDS011;43397;51.530;5.974;2023-05-15T14:00:07;30.95;;;23.90;;
57561;SDS011;43397;51.530;5.974;2023-05-15T14:02:34;31.92;;;24.52;;
57561;SDS011;43397;51.530;5.974;2023-05-15T14:05:00;35.58;;;25.45;;
57561;SDS011;43397;51.530;5.974;2023-05-15T14:07:25;37.63;;;25.35;;
57561;SDS011;43397;51.530;5.974;2023-05-15T14:09:51;34.80;;;24.95;;
57561;SDS011;43397;51.530;5.974;2023-05-15T14:12:18;37.88;;;25.83;;
57561;SDS011;43397;51.530;5.974;2023-05-15T14:14:44;35.92;;;25.27;;
57561;SDS011;43397;51.530;5.974;2023-05-15T14:17:10;32.63;;;23.75;;
57561;SDS011;43397;51.530;5.974;2023-05-15T14:19:35;37.58;;;26.30;;
57561;SDS011;43397;51.530;5.974;2023-05-15T14:22:01;37.88;;;27.63;;
57561;SDS011;43397;51.530;5.974;2023-05-15T14:24:27;38.25;;;28.35;;